createdAt,value
2023-03-13T00:01:22.228Z,5.80
2023-03-13T00:04:24.122Z,5.18
2023-03-13T00:07:25.816Z,5.10
2023-03-13T00:10:27.512Z,5.63
2023-03-13T00:13:29.202Z,5.90
2023-03-13T00:16:32.465Z,5.75
2023-03-13T00:19:34.342Z,5.85
2023-03-13T00:22:36.050Z,5.20
2023-03-13T00:25:37.703Z,5.88
2023-03-13T00:28:41.049Z,5.97
2023-03-13T00:31:44.209Z,8.70
2023-03-13T00:34:45.877Z,5.93
2023-03-13T00:37:47.538Z,5.38
2023-03-13T00:40:49.184Z,5.18
2023-03-13T00:43:51.360Z,4.80
2023-03-13T00:46:54.375Z,5.90
2023-03-13T00:49:56.134Z,4.78
2023-03-13T00:52:58.039Z,5.93
2023-03-13T00:56:01.388Z,5.35
2023-03-13T00:59:03.299Z,5.35
2023-03-13T01:02:06.469Z,5.40
2023-03-13T01:05:09.399Z,5.07
2023-03-13T01:08:11.092Z,5.13
2023-03-13T01:11:14.618Z,5.65
2023-03-13T01:14:18.838Z,4.95
2023-03-13T01:17:21.882Z,5.40
2023-03-13T01:20:23.862Z,5.13
2023-03-13T01:23:26.217Z,4.88
2023-03-13T01:26:28.616Z,4.70
2023-03-13T01:29:30.304Z,5.28
2023-03-13T01:32:34.625Z,5.07
2023-03-13T01:35:36.384Z,5.93
2023-03-13T01:38:39.255Z,5.22
2023-03-13T01:41:40.950Z,4.95
2023-03-13T01:44:54.365Z,5.50
2023-03-13T01:47:57.582Z,5.07
2023-03-13T01:51:02.772Z,5.38
2023-03-13T01:54:09.569Z,5.47
2023-03-13T01:57:18.900Z,5.13
2023-03-13T02:00:24.156Z,5.32
2023-03-13T02:03:28.316Z,5.50
2023-03-13T02:06:33.120Z,4.70
2023-03-13T02:09:37.506Z,5.28
2023-03-13T02:12:40.348Z,5.07
2023-03-13T02:15:42.312Z,5.20
2023-03-13T02:18:46.074Z,5.15
2023-03-13T02:21:53.167Z,4.90
2023-03-13T02:25:00.031Z,5.05
2023-03-13T02:28:07.363Z,4.82
2023-03-13T02:31:10.526Z,5.03
2023-03-13T02:34:15.725Z,5.22
2023-03-13T02:37:18.101Z,4.47
2023-03-13T02:40:24.202Z,5.07
2023-03-13T02:43:30.326Z,5.57
2023-03-13T02:46:43.377Z,4.78
2023-03-13T02:49:45.111Z,4.93
2023-03-13T02:52:49.946Z,5.00
2023-03-13T02:55:52.286Z,5.30
2023-03-13T02:58:55.574Z,4.82
2023-03-13T03:01:57.327Z,5.40
2023-03-13T03:04:59.294Z,4.38
2023-03-13T03:08:00.993Z,4.40
2023-03-13T03:11:02.738Z,4.82
2023-03-13T03:14:06.335Z,4.45
2023-03-13T03:17:08.034Z,4.75
2023-03-13T03:20:11.164Z,4.55
2023-03-13T03:23:12.840Z,4.88
2023-03-13T03:26:14.544Z,4.20
2023-03-13T03:29:17.683Z,4.78
2023-03-13T03:32:19.416Z,4.03
2023-03-13T03:35:21.135Z,4.43
2023-03-13T03:38:22.790Z,4.55
2023-03-13T03:41:24.498Z,4.55
2023-03-13T03:44:27.692Z,4.40
2023-03-13T03:47:29.446Z,4.38
2023-03-13T03:50:31.147Z,3.97
2023-03-13T03:53:32.876Z,4.07
2023-03-13T03:56:34.555Z,5.03
2023-03-13T03:59:37.817Z,4.43
2023-03-13T04:02:39.678Z,4.43
2023-03-13T04:05:41.545Z,4.90
2023-03-13T04:08:43.234Z,4.28
2023-03-13T04:11:45.030Z,4.72
2023-03-13T04:14:48.117Z,4.65
2023-03-13T04:17:49.875Z,4.13
2023-03-13T04:20:59.557Z,4.32
2023-03-13T04:24:01.278Z,4.32
2023-03-13T04:27:03.011Z,3.97
2023-03-13T04:30:07.754Z,5.03
2023-03-13T04:33:09.408Z,4.22
2023-03-13T04:36:11.156Z,4.70
2023-03-13T04:39:12.927Z,4.40
2023-03-13T04:42:14.640Z,4.00
2023-03-13T04:45:17.961Z,4.88
2023-03-13T04:48:19.685Z,4.60
2023-03-13T04:51:21.670Z,3.85
2023-03-13T04:54:23.433Z,4.53
2023-03-13T04:57:25.145Z,4.63
2023-03-13T05:00:28.195Z,4.60
2023-03-13T05:03:29.895Z,4.35
2023-03-13T05:06:31.638Z,4.13
2023-03-13T05:09:33.366Z,4.28
2023-03-13T05:12:35.313Z,3.55
2023-03-13T05:15:38.457Z,4.13
2023-03-13T05:18:40.195Z,4.18
2023-03-13T05:21:41.900Z,4.40
2023-03-13T05:24:43.591Z,5.35
2023-03-13T05:27:45.632Z,4.18
2023-03-13T05:30:48.817Z,5.18
2023-03-13T05:33:50.604Z,5.05
2023-03-13T05:36:52.321Z,4.30
2023-03-13T05:39:54.057Z,4.55
2023-03-13T05:42:55.780Z,5.28
2023-03-13T05:45:58.866Z,5.15
2023-03-13T05:49:00.841Z,4.32
2023-03-13T05:52:02.553Z,4.47
2023-03-13T05:55:05.059Z,4.93
2023-03-13T05:58:06.760Z,4.43
2023-03-13T06:01:11.646Z,5.22
2023-03-13T06:04:13.458Z,5.13
2023-03-13T06:07:15.477Z,5.30
2023-03-13T06:10:17.455Z,4.30
2023-03-13T06:13:20.468Z,4.78
2023-03-13T06:16:23.770Z,4.93
2023-03-13T06:19:25.690Z,4.18
2023-03-13T06:22:27.544Z,4.45
2023-03-13T06:25:29.280Z,4.82
2023-03-13T06:28:31.223Z,4.38
2023-03-13T06:31:34.433Z,17.30
2023-03-13T06:34:36.365Z,12.55
2023-03-13T06:37:38.064Z,24.27
2023-03-13T06:40:39.787Z,11.95
2023-03-13T06:43:41.506Z,25.85
2023-03-13T06:46:44.631Z,20.65
2023-03-13T06:49:46.302Z,15.05
2023-03-13T06:52:48.046Z,11.45
2023-03-13T06:55:49.805Z,11.63
2023-03-13T06:58:51.925Z,8.25
2023-03-13T07:01:55.036Z,7.75
2023-03-13T07:04:56.838Z,5.35
2023-03-13T07:07:58.542Z,5.82
2023-03-13T07:11:02.418Z,4.53
2023-03-13T07:17:19.928Z,3.38
2023-03-13T07:20:21.672Z,4.65
2023-03-13T07:23:24.481Z,4.43
2023-03-13T07:26:26.219Z,3.72
2023-03-13T07:29:27.964Z,4.90
2023-03-13T07:32:32.850Z,5.45
2023-03-13T07:35:34.590Z,5.97
2023-03-13T07:38:38.139Z,9.43
2023-03-13T07:41:40.188Z,5.05
2023-03-13T07:44:41.996Z,4.13
2023-03-13T07:47:45.068Z,3.95
2023-03-13T07:50:47.738Z,4.18
2023-03-13T07:53:49.799Z,4.35
2023-03-13T07:56:51.459Z,4.00
2023-03-13T07:59:53.209Z,3.53
2023-03-13T08:02:56.523Z,3.33
2023-03-13T08:05:59.588Z,3.67
2023-03-13T08:09:02.344Z,3.38
2023-03-13T08:12:04.486Z,3.58
2023-03-13T08:15:07.436Z,4.13
2023-03-13T08:18:10.584Z,3.50
2023-03-13T08:21:14.145Z,3.17
2023-03-13T08:24:15.942Z,3.65
2023-03-13T08:27:17.704Z,3.30
2023-03-13T08:30:19.740Z,4.55
2023-03-13T08:33:23.313Z,3.72
2023-03-13T08:36:27.376Z,3.33
2023-03-13T08:39:29.059Z,3.30
2023-03-13T08:42:30.801Z,3.78
2023-03-13T08:45:32.536Z,3.40
2023-03-13T08:48:36.139Z,3.50
2023-03-13T08:51:37.937Z,2.90
2023-03-13T08:54:40.126Z,3.25
2023-03-13T08:57:41.850Z,3.17
2023-03-13T09:00:43.613Z,2.72
2023-03-13T09:03:48.121Z,3.15
2023-03-13T09:06:50.066Z,2.90
2023-03-13T09:09:51.763Z,2.80
2023-03-13T09:12:53.526Z,2.38
2023-03-13T09:15:55.891Z,2.72
2023-03-13T09:18:59.668Z,2.75
2023-03-13T09:22:01.412Z,2.55
2023-03-13T09:25:03.163Z,3.15
2023-03-13T09:28:05.161Z,3.60
2023-03-13T09:31:08.225Z,3.33
2023-03-13T09:34:11.420Z,3.40
2023-03-13T09:37:13.189Z,2.83
2023-03-13T09:40:15.864Z,2.97
2023-03-13T09:43:26.639Z,2.78
2023-03-13T09:46:37.263Z,3.22
2023-03-13T09:49:45.446Z,2.92
2023-03-13T09:52:51.266Z,3.13
2023-03-13T09:55:53.070Z,2.85
2023-03-13T09:58:58.976Z,2.75
2023-03-13T10:02:04.046Z,2.88
2023-03-13T10:05:14.077Z,2.80
2023-03-13T10:08:18.323Z,3.10
2023-03-13T10:11:26.571Z,3.47
2023-03-13T10:14:31.098Z,3.20
2023-03-13T10:17:34.759Z,2.80
2023-03-13T10:20:40.420Z,2.58
2023-03-13T10:23:48.825Z,2.97
2023-03-13T10:26:50.701Z,2.92
2023-03-13T10:29:52.692Z,3.13
2023-03-13T10:32:57.671Z,3.58
2023-03-13T10:36:04.530Z,3.65
2023-03-13T10:39:08.454Z,3.60
2023-03-13T10:42:12.037Z,3.05
2023-03-13T10:48:20.856Z,3.25
2023-03-13T10:51:30.675Z,3.38
2023-03-13T10:54:34.159Z,3.13
2023-03-13T10:57:37.066Z,2.97
2023-03-13T11:00:40.141Z,4.22
2023-03-13T11:03:43.030Z,6.70
2023-03-13T11:06:51.805Z,4.50
2023-03-13T11:10:02.134Z,4.30
2023-03-13T11:13:04.009Z,4.70
2023-03-13T11:24:55.491Z,7.70
2023-03-13T11:28:20.491Z,4.65
2023-03-13T11:31:28.425Z,3.90
2023-03-13T11:34:37.673Z,3.65
2023-03-13T11:37:41.706Z,2.97
2023-03-13T11:40:52.669Z,2.45
2023-03-13T11:44:17.471Z,2.40
2023-03-13T11:47:41.504Z,2.50
2023-03-13T11:50:49.843Z,2.53
2023-03-13T11:54:11.595Z,2.17
2023-03-13T12:00:25.913Z,2.10
2023-03-13T12:03:36.508Z,2.45
2023-03-13T12:06:44.369Z,1.85
2023-03-13T12:09:53.168Z,2.10
2023-03-13T12:13:03.680Z,2.65
2023-03-13T12:16:11.658Z,1.90
2023-03-13T12:19:17.756Z,2.00
2023-03-13T12:22:24.703Z,2.20
2023-03-13T12:25:33.002Z,2.17
2023-03-13T12:28:42.921Z,1.90
2023-03-13T12:31:51.852Z,2.60
2023-03-13T12:35:02.971Z,2.45
2023-03-13T12:38:15.334Z,2.33
2023-03-13T12:41:24.208Z,2.30
2023-03-13T12:44:27.630Z,1.90
2023-03-13T12:47:32.524Z,2.17
2023-03-13T12:50:47.532Z,2.15
2023-03-13T12:54:15.170Z,2.10
2023-03-13T12:57:33.964Z,2.20
2023-03-13T13:00:40.238Z,2.70
2023-03-13T13:03:52.221Z,2.60
2023-03-13T13:06:58.757Z,2.80
2023-03-13T13:10:14.105Z,2.22
2023-03-13T13:13:30.094Z,2.92
2023-03-13T13:16:33.990Z,2.30
2023-03-13T13:19:45.837Z,2.20
2023-03-13T13:22:50.053Z,2.63
2023-03-13T13:25:55.695Z,3.13
2023-03-13T13:28:59.029Z,3.05
2023-03-13T13:32:02.173Z,2.83
2023-03-13T13:35:06.492Z,2.60
2023-03-13T13:38:30.659Z,3.08
2023-03-13T13:41:37.199Z,3.03
2023-03-13T13:44:57.705Z,3.13
2023-03-13T13:48:27.788Z,3.08
2023-03-13T13:51:29.578Z,2.70
2023-03-13T13:54:34.074Z,2.53
2023-03-13T13:57:37.079Z,2.17
2023-03-13T14:00:43.120Z,2.92
2023-03-13T14:03:50.737Z,2.90
2023-03-13T14:06:58.988Z,2.40
2023-03-13T14:10:06.193Z,2.30
2023-03-13T14:13:13.791Z,2.13
2023-03-13T14:16:24.998Z,2.40
2023-03-13T14:19:32.413Z,3.17
2023-03-13T14:22:45.355Z,1.85
2023-03-13T14:25:49.113Z,2.50
2023-03-13T14:28:53.031Z,2.60
2023-03-13T14:31:56.165Z,2.13
2023-03-13T14:34:59.521Z,2.67
2023-03-13T14:38:02.562Z,5.38
2023-03-13T14:41:04.346Z,3.45
2023-03-13T14:44:11.590Z,3.67
2023-03-13T14:47:28.397Z,1.77
2023-03-13T14:50:32.261Z,2.78
2023-03-13T14:53:34.004Z,2.25
2023-03-13T14:56:37.834Z,2.65
2023-03-13T14:59:39.779Z,2.80
2023-03-13T15:02:41.770Z,2.70
2023-03-13T15:05:46.848Z,2.70
2023-03-13T15:09:07.149Z,3.95
2023-03-13T15:12:15.206Z,3.40
2023-03-13T15:18:22.532Z,5.00
2023-03-13T15:21:29.291Z,3.65
2023-03-13T15:24:31.150Z,3.20
2023-03-13T15:27:33.007Z,2.55
2023-03-13T15:30:34.827Z,3.00
2023-03-13T15:33:36.524Z,2.53
2023-03-13T15:36:40.334Z,4.00
2023-03-13T15:39:42.383Z,6.30
2023-03-13T15:42:44.351Z,5.70
2023-03-13T15:45:47.393Z,5.32
2023-03-13T15:48:49.411Z,4.40
2023-03-13T15:51:52.601Z,3.33
2023-03-13T15:54:54.242Z,4.32
2023-03-13T15:57:56.139Z,4.20
2023-03-13T16:00:58.690Z,4.82
2023-03-13T16:04:00.499Z,8.93
2023-03-13T16:07:09.918Z,3.55
2023-03-13T16:10:16.566Z,3.67
2023-03-13T16:13:18.615Z,4.53
2023-03-13T16:16:22.381Z,6.55
2023-03-13T16:19:24.277Z,4.18
2023-03-13T16:22:27.730Z,4.70
2023-03-13T16:25:30.398Z,4.80
2023-03-13T16:28:32.129Z,6.90
2023-03-13T16:31:33.987Z,5.57
2023-03-13T16:34:35.978Z,5.50
2023-03-13T16:37:39.765Z,5.00
2023-03-13T16:40:41.656Z,4.50
2023-03-13T16:43:43.776Z,4.00
2023-03-13T16:46:59.080Z,6.18
2023-03-13T16:50:21.721Z,4.93
2023-03-13T16:53:25.133Z,5.00
2023-03-13T16:56:29.879Z,5.20
2023-03-13T16:59:31.975Z,5.38
2023-03-13T17:02:33.985Z,5.45
2023-03-13T17:05:35.758Z,5.65
2023-03-13T17:08:39.150Z,6.68
2023-03-13T17:11:41.237Z,7.15
2023-03-13T17:14:43.542Z,7.10
2023-03-13T17:17:47.071Z,6.97
2023-03-13T17:20:49.422Z,6.22
2023-03-13T17:23:53.083Z,6.93
2023-03-13T17:29:56.277Z,5.68
2023-03-13T17:32:58.076Z,5.75
2023-03-13T17:35:59.966Z,7.07
2023-03-13T17:39:06.416Z,6.13
2023-03-13T17:42:08.865Z,6.25
2023-03-13T17:45:11.500Z,9.57
2023-03-13T17:48:13.444Z,9.55
2023-03-13T17:51:20.301Z,8.45
2023-03-13T17:54:25.598Z,5.95
2023-03-13T17:57:27.741Z,5.32
2023-03-13T18:00:31.731Z,9.50
2023-03-13T18:03:34.238Z,8.43
2023-03-13T18:06:40.132Z,8.88
2023-03-13T18:09:43.504Z,8.80
2023-03-13T18:12:46.843Z,9.05
2023-03-13T18:15:49.260Z,10.27
2023-03-13T18:18:51.970Z,8.73
2023-03-13T18:21:56.536Z,11.50
2023-03-13T18:25:00.599Z,12.27
2023-03-13T18:28:02.739Z,12.18
2023-03-13T18:31:05.178Z,11.65
2023-03-13T18:34:11.136Z,12.52
2023-03-13T18:37:22.211Z,10.45
2023-03-13T18:40:29.294Z,8.07
2023-03-13T18:43:32.855Z,9.30
2023-03-13T18:49:38.553Z,10.95
2023-03-13T18:52:41.391Z,10.30
2023-03-13T18:55:46.882Z,9.35
2023-03-13T18:58:52.114Z,12.48
2023-03-13T19:01:55.159Z,13.40
2023-03-13T19:04:58.584Z,11.43
2023-03-13T19:08:01.661Z,10.23
2023-03-13T19:11:07.566Z,8.65
2023-03-13T19:14:11.038Z,9.32
2023-03-13T19:17:20.001Z,8.27
2023-03-13T19:20:24.529Z,10.18
2023-03-13T19:23:27.514Z,9.90
2023-03-13T19:26:35.711Z,12.85
2023-03-13T19:29:38.327Z,14.07
2023-03-13T19:32:42.841Z,15.43
2023-03-13T19:35:45.520Z,12.95
2023-03-13T19:38:48.255Z,11.70
2023-03-13T19:41:53.982Z,10.15
2023-03-13T19:45:01.632Z,11.43
2023-03-13T19:48:06.078Z,11.52
2023-03-13T19:51:09.112Z,10.68
2023-03-13T19:54:12.858Z,13.60
2023-03-13T20:00:21.367Z,11.15
2023-03-13T20:03:25.190Z,10.48
2023-03-13T20:06:32.913Z,10.68
2023-03-13T20:09:36.645Z,12.38
2023-03-13T20:12:40.813Z,11.63
2023-03-13T20:15:43.641Z,11.60
2023-03-13T20:18:48.957Z,11.30
2023-03-13T20:21:51.991Z,16.27
2023-03-13T20:24:54.748Z,15.10
2023-03-13T20:27:58.897Z,12.02
2023-03-13T20:31:01.611Z,12.63
2023-03-13T20:34:04.422Z,11.50
2023-03-13T20:37:07.302Z,11.38
2023-03-13T20:40:11.774Z,10.35
2023-03-13T20:43:17.518Z,9.23
2023-03-13T20:46:21.906Z,9.68
2023-03-13T20:49:24.832Z,8.38
2023-03-13T20:52:29.588Z,9.35
2023-03-13T20:55:34.404Z,8.43
2023-03-13T20:58:39.244Z,9.07
2023-03-13T21:01:42.150Z,8.73
2023-03-13T21:04:45.088Z,8.15
2023-03-13T21:07:48.119Z,8.57
2023-03-13T21:10:50.919Z,9.88
2023-03-13T21:13:54.833Z,12.68
2023-03-13T21:16:56.847Z,9.35
2023-03-13T21:19:59.083Z,9.13
2023-03-13T21:23:01.386Z,9.80
2023-03-13T21:26:03.104Z,8.57
2023-03-13T21:29:06.540Z,8.73
2023-03-13T21:32:08.351Z,8.13
2023-03-13T21:35:10.920Z,7.65
2023-03-13T21:38:13.165Z,7.93
2023-03-13T21:41:16.874Z,7.82
2023-03-13T21:44:19.953Z,7.05
2023-03-13T21:47:21.930Z,8.55
2023-03-13T21:50:23.582Z,7.70
2023-03-13T21:53:25.268Z,7.65
2023-03-13T21:56:26.947Z,8.07
2023-03-13T21:59:30.003Z,7.72
2023-03-13T22:02:31.833Z,7.70
2023-03-13T22:05:34.360Z,8.20
2023-03-13T22:08:36.149Z,8.73
2023-03-13T22:11:37.879Z,9.65
2023-03-13T22:14:40.978Z,8.88
2023-03-13T22:17:42.701Z,9.23
2023-03-13T22:20:44.442Z,8.57
2023-03-13T22:23:46.705Z,8.25
2023-03-13T22:26:48.387Z,8.07
2023-03-13T22:29:51.743Z,7.60
2023-03-13T22:32:53.475Z,7.97
2023-03-13T22:35:55.201Z,7.25
2023-03-13T22:38:57.012Z,8.38
2023-03-13T22:41:58.675Z,9.15
2023-03-13T22:45:02.063Z,12.15
2023-03-13T22:48:04.055Z,7.65
2023-03-13T22:51:09.117Z,7.50
2023-03-13T22:54:10.948Z,7.70
2023-03-13T22:57:12.618Z,7.07
2023-03-13T23:00:16.656Z,8.02
2023-03-13T23:03:18.800Z,7.97
2023-03-13T23:06:22.835Z,7.45
2023-03-13T23:09:24.532Z,6.75
2023-03-13T23:12:26.744Z,7.25
2023-03-13T23:15:42.904Z,7.05
2023-03-13T23:18:51.793Z,6.03
2023-03-13T23:21:53.559Z,6.88
2023-03-13T23:24:55.272Z,6.30
2023-03-13T23:27:57.287Z,7.00
2023-03-13T23:31:00.475Z,6.50
2023-03-13T23:34:02.209Z,6.80
2023-03-13T23:37:04.227Z,6.50
2023-03-13T23:40:08.574Z,6.85
2023-03-13T23:43:10.242Z,6.80
2023-03-13T23:46:18.126Z,6.63
2023-03-13T23:49:19.771Z,7.40
2023-03-13T23:52:21.533Z,7.03
2023-03-13T23:55:23.751Z,6.18
2023-03-13T23:58:25.643Z,7.28
